sensor_id;sensor_type;location;lat;lon;timestamp;temperature;humidity
19781;DHT22;10050;55.492;13.506;2022-07-18T00:00:59;17.70;99.90
19781;DHT22;10050;55.492;13.506;2022-07-18T00:03:24;17.70;99.90
19781;DHT22;10050;55.492;13.506;2022-07-18T00:05:50;17.70;99.90
19781;DHT22;10050;55.492;13.506;2022-07-18T00:08:16;17.70;99.90
19781;DHT22;10050;55.492;13.506;2022-07-18T00:10:41;17.70;99.90
19781;DHT22;10050;55.492;13.506;2022-07-18T00:13:07;17.70;99.90
19781;DHT22;10050;55.492;13.506;2022-07-18T00:15:35;17.60;99.90
19781;DHT22;10050;55.492;13.506;2022-07-18T00:18:01;17.60;99.90
19781;DHT22;10050;55.492;13.506;2022-07-18T00:20:27;17.60;99.90
19781;DHT22;10050;55.492;13.506;2022-07-18T00:22:54;17.50;99.90
19781;DHT22;10050;55.492;13.506;2022-07-18T00:25:20;17.50;99.90
19781;DHT22;10050;55.492;13.506;2022-07-18T00:27:46;17.50;99.90
19781;DHT22;10050;55.492;13.506;2022-07-18T00:30:12;17.50;99.90
19781;DHT22;10050;55.492;13.506;2022-07-18T00:32:37;17.50;99.90
19781;DHT22;10050;55.492;13.506;2022-07-18T00:35:03;17.50;99.90
19781;DHT22;10050;55.492;13.506;2022-07-18T00:37:29;17.50;99.90
19781;DHT22;10050;55.492;13.506;2022-07-18T00:39:54;17.50;99.90
19781;DHT22;10050;55.492;13.506;2022-07-18T00:42:21;17.50;99.90
19781;DHT22;10050;55.492;13.506;2022-07-18T00:44:46;17.50;99.90
19781;DHT22;10050;55.492;13.506;2022-07-18T00:47:12;17.50;99.90
19781;DHT22;10050;55.492;13.506;2022-07-18T00:49:38;17.40;99.90
19781;DHT22;10050;55.492;13.506;2022-07-18T00:52:04;17.40;99.90
19781;DHT22;10050;55.492;13.506;2022-07-18T00:54:30;17.30;99.90
19781;DHT22;10050;55.492;13.506;2022-07-18T00:56:58;17.30;99.90
19781;DHT22;10050;55.492;13.506;2022-07-18T00:59:24;17.30;99.90
19781;DHT22;10050;55.492;13.506;2022-07-18T01:02:10;17.20;99.90
19781;DHT22;10050;55.492;13.506;2022-07-18T01:04:36;17.30;99.90
19781;DHT22;10050;55.492;13.506;2022-07-18T01:07:02;17.30;99.90
19781;DHT22;10050;55.492;13.506;2022-07-18T01:09:28;17.30;99.90
19781;DHT22;10050;55.492;13.506;2022-07-18T01:11:53;17.30;99.90
19781;DHT22;10050;55.492;13.506;2022-07-18T01:14:19;17.30;99.90
19781;DHT22;10050;55.492;13.506;2022-07-18T01:16:45;17.30;99.90
19781;DHT22;10050;55.492;13.506;2022-07-18T01:19:11;17.30;99.90
19781;DHT22;10050;55.492;13.506;2022-07-18T01:21:37;17.30;99.90
19781;DHT22;10050;55.492;13.506;2022-07-18T01:24:03;17.30;99.90
19781;DHT22;10050;55.492;13.506;2022-07-18T01:26:29;17.30;99.90
19781;DHT22;10050;55.492;13.506;2022-07-18T01:28:54;17.30;99.90
19781;DHT22;10050;55.492;13.506;2022-07-18T01:31:20;17.30;99.90
19781;DHT22;10050;55.492;13.506;2022-07-18T01:33:46;17.30;99.90
19781;DHT22;10050;55.492;13.506;2022-07-18T01:36:11;17.30;99.90
19781;DHT22;10050;55.492;13.506;2022-07-18T01:38:38;17.30;99.90
19781;DHT22;10050;55.492;13.506;2022-07-18T01:41:04;17.30;99.90
19781;DHT22;10050;55.492;13.506;2022-07-18T01:43:30;17.30;99.90
19781;DHT22;10050;55.492;13.506;2022-07-18T01:45:56;17.30;99.90
19781;DHT22;10050;55.492;13.506;2022-07-18T01:48:22;17.20;99.90
19781;DHT22;10050;55.492;13.506;2022-07-18T01:50:49;17.20;99.90
19781;DHT22;10050;55.492;13.506;2022-07-18T01:53:15;17.20;99.90
19781;DHT22;10050;55.492;13.506;2022-07-18T01:55:40;17.10;99.90
19781;DHT22;10050;55.492;13.506;2022-07-18T01:58:06;17.10;99.90
19781;DHT22;10050;55.492;13.506;2022-07-18T02:00:32;17.10;99.90
19781;DHT22;10050;55.492;13.506;2022-07-18T02:02:58;17.10;99.90
19781;DHT22;10050;55.492;13.506;2022-07-18T02:05:23;17.10;99.90
19781;DHT22;10050;55.492;13.506;2022-07-18T02:07:49;17.10;99.90
19781;DHT22;10050;55.492;13.506;2022-07-18T02:10:19;17.10;99.90
19781;DHT22;10050;55.492;13.506;2022-07-18T02:12:45;17.10;99.90
19781;DHT22;10050;55.492;13.506;2022-07-18T02:15:13;17.10;99.90
19781;DHT22;10050;55.492;13.506;2022-07-18T02:17:39;17.00;99.90
19781;DHT22;10050;55.492;13.506;2022-07-18T02:20:07;17.00;99.90
19781;DHT22;10050;55.492;13.506;2022-07-18T02:22:33;17.00;99.90
19781;DHT22;10050;55.492;13.506;2022-07-18T02:24:59;17.00;99.90
19781;DHT22;10050;55.492;13.506;2022-07-18T02:27:25;17.00;99.90
19781;DHT22;10050;55.492;13.506;2022-07-18T02:29:50;17.00;99.90
19781;DHT22;10050;55.492;13.506;2022-07-18T02:32:16;17.00;99.90
19781;DHT22;10050;55.492;13.506;2022-07-18T02:34:42;17.00;99.90
19781;DHT22;10050;55.492;13.506;2022-07-18T02:37:08;16.90;99.90
19781;DHT22;10050;55.492;13.506;2022-07-18T02:39:34;16.90;99.90
19781;DHT22;10050;55.492;13.506;2022-07-18T02:42:00;16.90;99.90
19781;DHT22;10050;55.492;13.506;2022-07-18T02:44:26;16.80;99.90
19781;DHT22;10050;55.492;13.506;2022-07-18T02:46:52;16.80;99.90
19781;DHT22;10050;55.492;13.506;2022-07-18T02:49:17;16.90;99.90
19781;DHT22;10050;55.492;13.506;2022-07-18T02:52:01;16.90;99.90
19781;DHT22;10050;55.492;13.506;2022-07-18T02:54:28;16.90;99.90
19781;DHT22;10050;55.492;13.506;2022-07-18T02:56:54;16.90;99.90
19781;DHT22;10050;55.492;13.506;2022-07-18T02:59:20;16.90;99.90
19781;DHT22;10050;55.492;13.506;2022-07-18T03:01:46;16.90;99.90
19781;DHT22;10050;55.492;13.506;2022-07-18T03:04:14;16.90;99.90
19781;DHT22;10050;55.492;13.506;2022-07-18T03:06:40;16.80;99.90
19781;DHT22;10050;55.492;13.506;2022-07-18T03:09:05;16.80;99.90
19781;DHT22;10050;55.492;13.506;2022-07-18T03:11:31;16.80;99.90
19781;DHT22;10050;55.492;13.506;2022-07-18T03:13:57;16.80;99.90
19781;DHT22;10050;55.492;13.506;2022-07-18T03:16:23;16.90;99.90
19781;DHT22;10050;55.492;13.506;2022-07-18T03:18:48;16.90;99.90
19781;DHT22;10050;55.492;13.506;2022-07-18T03:21:14;16.90;99.90
19781;DHT22;10050;55.492;13.506;2022-07-18T03:23:39;16.90;99.90
19781;DHT22;10050;55.492;13.506;2022-07-18T03:26:05;16.90;99.90
19781;DHT22;10050;55.492;13.506;2022-07-18T03:28:31;16.90;99.90
19781;DHT22;10050;55.492;13.506;2022-07-18T03:30:56;16.90;99.90
19781;DHT22;10050;55.492;13.506;2022-07-18T03:33:27;16.80;99.90
19781;DHT22;10050;55.492;13.506;2022-07-18T03:35:53;16.80;99.90
19781;DHT22;10050;55.492;13.506;2022-07-18T03:38:18;16.80;99.90
19781;DHT22;10050;55.492;13.506;2022-07-18T03:40:44;16.80;99.90
19781;DHT22;10050;55.492;13.506;2022-07-18T03:43:09;16.90;99.90
19781;DHT22;10050;55.492;13.506;2022-07-18T03:45:35;16.90;99.90
19781;DHT22;10050;55.492;13.506;2022-07-18T03:48:01;16.90;99.90
19781;DHT22;10050;55.492;13.506;2022-07-18T03:50:26;16.90;99.90
19781;DHT22;10050;55.492;13.506;2022-07-18T03:52:53;16.90;99.90
19781;DHT22;10050;55.492;13.506;2022-07-18T03:55:19;16.90;99.90
19781;DHT22;10050;55.492;13.506;2022-07-18T03:57:45;17.00;99.90
19781;DHT22;10050;55.492;13.506;2022-07-18T04:00:11;16.90;99.90
19781;DHT22;10050;55.492;13.506;2022-07-18T04:02:41;17.00;99.90
19781;DHT22;10050;55.492;13.506;2022-07-18T04:05:07;17.00;99.90
19781;DHT22;10050;55.492;13.506;2022-07-18T04:07:33;17.00;99.90
19781;DHT22;10050;55.492;13.506;2022-07-18T04:09:59;17.00;99.90
19781;DHT22;10050;55.492;13.506;2022-07-18T04:12:25;17.10;99.90
19781;DHT22;10050;55.492;13.506;2022-07-18T04:14:53;17.10;99.90
19781;DHT22;10050;55.492;13.506;2022-07-18T04:17:19;17.20;99.90
19781;DHT22;10050;55.492;13.506;2022-07-18T04:19:44;17.20;99.90
19781;DHT22;10050;55.492;13.506;2022-07-18T04:22:10;17.20;99.90
19781;DHT22;10050;55.492;13.506;2022-07-18T04:24:35;17.30;99.90
19781;DHT22;10050;55.492;13.506;2022-07-18T04:27:01;17.30;99.90
19781;DHT22;10050;55.492;13.506;2022-07-18T04:29:27;17.30;99.90
19781;DHT22;10050;55.492;13.506;2022-07-18T04:31:52;17.30;99.90
19781;DHT22;10050;55.492;13.506;2022-07-18T04:34:18;17.30;99.90
19781;DHT22;10050;55.492;13.506;2022-07-18T04:36:44;17.30;99.90
19781;DHT22;10050;55.492;13.506;2022-07-18T04:39:09;17.30;99.90
19781;DHT22;10050;55.492;13.506;2022-07-18T04:41:35;17.20;99.90
19781;DHT22;10050;55.492;13.506;2022-07-18T04:44:00;17.20;99.90
19781;DHT22;10050;55.492;13.506;2022-07-18T04:46:26;17.20;99.90
19781;DHT22;10050;55.492;13.506;2022-07-18T04:48:52;17.30;99.90
19781;DHT22;10050;55.492;13.506;2022-07-18T04:51:17;17.30;99.90
19781;DHT22;10050;55.492;13.506;2022-07-18T04:53:43;17.30;99.90
19781;DHT22;10050;55.492;13.506;2022-07-18T04:56:08;17.40;99.90
19781;DHT22;10050;55.492;13.506;2022-07-18T04:58:34;17.50;99.90
19781;DHT22;10050;55.492;13.506;2022-07-18T05:01:00;17.60;99.90
19781;DHT22;10050;55.492;13.506;2022-07-18T05:03:25;17.70;99.90
19781;DHT22;10050;55.492;13.506;2022-07-18T05:05:51;17.70;99.90
19781;DHT22;10050;55.492;13.506;2022-07-18T05:08:16;17.80;99.90
19781;DHT22;10050;55.492;13.506;2022-07-18T05:10:42;17.80;99.90
19781;DHT22;10050;55.492;13.506;2022-07-18T05:13:08;17.80;99.90
19781;DHT22;10050;55.492;13.506;2022-07-18T05:15:33;17.90;99.90
19781;DHT22;10050;55.492;13.506;2022-07-18T05:17:59;17.80;99.90
19781;DHT22;10050;55.492;13.506;2022-07-18T05:20:26;17.70;99.90
19781;DHT22;10050;55.492;13.506;2022-07-18T05:22:52;17.90;99.90
19781;DHT22;10050;55.492;13.506;2022-07-18T05:25:19;18.00;99.90
19781;DHT22;10050;55.492;13.506;2022-07-18T05:27:45;18.20;99.90
19781;DHT22;10050;55.492;13.506;2022-07-18T05:30:12;18.30;99.90
19781;DHT22;10050;55.492;13.506;2022-07-18T05:32:39;18.30;99.90
19781;DHT22;10050;55.492;13.506;2022-07-18T05:35:06;18.40;99.90
19781;DHT22;10050;55.492;13.506;2022-07-18T05:37:32;18.60;99.90
19781;DHT22;10050;55.492;13.506;2022-07-18T05:40:02;18.60;99.90
19781;DHT22;10050;55.492;13.506;2022-07-18T05:42:27;18.70;99.90
19781;DHT22;10050;55.492;13.506;2022-07-18T05:44:53;19.00;99.90
19781;DHT22;10050;55.492;13.506;2022-07-18T05:47:19;19.10;99.90
19781;DHT22;10050;55.492;13.506;2022-07-18T05:49:44;19.10;99.90
19781;DHT22;10050;55.492;13.506;2022-07-18T05:52:10;19.30;99.90
19781;DHT22;10050;55.492;13.506;2022-07-18T05:54:35;19.50;99.90
19781;DHT22;10050;55.492;13.506;2022-07-18T05:57:01;19.80;99.90
19781;DHT22;10050;55.492;13.506;2022-07-18T05:59:27;20.00;99.90
19781;DHT22;10050;55.492;13.506;2022-07-18T06:01:52;20.20;99.90
19781;DHT22;10050;55.492;13.506;2022-07-18T06:04:18;20.00;99.90
19781;DHT22;10050;55.492;13.506;2022-07-18T06:06:44;19.80;99.90
19781;DHT22;10050;55.492;13.506;2022-07-18T06:09:10;20.00;99.90
19781;DHT22;10050;55.492;13.506;2022-07-18T06:11:36;20.40;99.90
19781;DHT22;10050;55.492;13.506;2022-07-18T06:14:02;20.60;99.90
19781;DHT22;10050;55.492;13.506;2022-07-18T06:16:31;20.60;99.90
19781;DHT22;10050;55.492;13.506;2022-07-18T06:18:57;20.50;99.90
19781;DHT22;10050;55.492;13.506;2022-07-18T06:21:22;20.40;99.90
19781;DHT22;10050;55.492;13.506;2022-07-18T06:23:48;20.40;99.90
19781;DHT22;10050;55.492;13.506;2022-07-18T06:26:14;20.40;99.90
19781;DHT22;10050;55.492;13.506;2022-07-18T06:28:39;20.40;99.90
19781;DHT22;10050;55.492;13.506;2022-07-18T06:31:05;20.40;99.90
19781;DHT22;10050;55.492;13.506;2022-07-18T06:33:31;20.50;99.90
19781;DHT22;10050;55.492;13.506;2022-07-18T06:35:57;20.70;99.90
19781;DHT22;10050;55.492;13.506;2022-07-18T06:38:23;20.70;99.90
19781;DHT22;10050;55.492;13.506;2022-07-18T06:40:48;20.70;99.90
19781;DHT22;10050;55.492;13.506;2022-07-18T06:43:14;21.00;99.90
19781;DHT22;10050;55.492;13.506;2022-07-18T06:45:45;21.10;99.90
19781;DHT22;10050;55.492;13.506;2022-07-18T06:48:12;21.30;99.90
19781;DHT22;10050;55.492;13.506;2022-07-18T06:50:37;21.30;99.90
19781;DHT22;10050;55.492;13.506;2022-07-18T06:53:03;21.20;99.90
19781;DHT22;10050;55.492;13.506;2022-07-18T06:55:29;21.10;99.90
19781;DHT22;10050;55.492;13.506;2022-07-18T06:57:54;21.20;99.90
19781;DHT22;10050;55.492;13.506;2022-07-18T07:00:20;21.40;99.90
19781;DHT22;10050;55.492;13.506;2022-07-18T07:02:47;21.60;99.90
19781;DHT22;10050;55.492;13.506;2022-07-18T07:05:15;21.80;99.90
19781;DHT22;10050;55.492;13.506;2022-07-18T07:07:42;21.70;99.90
19781;DHT22;10050;55.492;13.506;2022-07-18T07:10:08;21.70;99.90
19781;DHT22;10050;55.492;13.506;2022-07-18T07:12:47;21.60;99.90
19781;DHT22;10050;55.492;13.506;2022-07-18T07:15:14;21.60;99.90
19781;DHT22;10050;55.492;13.506;2022-07-18T07:17:40;21.60;99.90
19781;DHT22;10050;55.492;13.506;2022-07-18T07:20:07;21.70;99.90
19781;DHT22;10050;55.492;13.506;2022-07-18T07:22:47;21.60;99.90
19781;DHT22;10050;55.492;13.506;2022-07-18T07:25:14;21.50;99.90
19781;DHT22;10050;55.492;13.506;2022-07-18T07:27:41;21.60;99.90
19781;DHT22;10050;55.492;13.506;2022-07-18T07:30:07;21.60;99.90
19781;DHT22;10050;55.492;13.506;2022-07-18T07:32:41;21.70;99.90
19781;DHT22;10050;55.492;13.506;2022-07-18T07:35:11;21.80;99.90
19781;DHT22;10050;55.492;13.506;2022-07-18T07:37:43;21.80;99.90
19781;DHT22;10050;55.492;13.506;2022-07-18T07:40:09;21.80;99.90
19781;DHT22;10050;55.492;13.506;2022-07-18T07:42:35;21.50;99.90
19781;DHT22;10050;55.492;13.506;2022-07-18T07:45:01;21.20;99.90
19781;DHT22;10050;55.492;13.506;2022-07-18T07:47:27;21.30;99.90
19781;DHT22;10050;55.492;13.506;2022-07-18T07:49:55;21.20;99.90
19781;DHT22;10050;55.492;13.506;2022-07-18T07:52:20;21.10;99.90
19781;DHT22;10050;55.492;13.506;2022-07-18T07:54:46;20.90;99.90
19781;DHT22;10050;55.492;13.506;2022-07-18T07:57:12;20.80;99.90
19781;DHT22;10050;55.492;13.506;2022-07-18T07:59:38;20.70;99.90
19781;DHT22;10050;55.492;13.506;2022-07-18T08:02:04;20.60;99.90
19781;DHT22;10050;55.492;13.506;2022-07-18T08:04:30;20.60;99.90
19781;DHT22;10050;55.492;13.506;2022-07-18T08:06:55;20.60;99.90
19781;DHT22;10050;55.492;13.506;2022-07-18T08:09:21;20.80;99.90
19781;DHT22;10050;55.492;13.506;2022-07-18T08:11:47;20.90;99.90
19781;DHT22;10050;55.492;13.506;2022-07-18T08:14:12;21.10;99.90
19781;DHT22;10050;55.492;13.506;2022-07-18T08:16:38;21.30;99.90
19781;DHT22;10050;55.492;13.506;2022-07-18T08:19:04;21.30;99.90
19781;DHT22;10050;55.492;13.506;2022-07-18T08:21:30;21.40;99.90
19781;DHT22;10050;55.492;13.506;2022-07-18T08:23:56;21.40;99.90
19781;DHT22;10050;55.492;13.506;2022-07-18T08:26:21;21.50;99.90
19781;DHT22;10050;55.492;13.506;2022-07-18T08:28:47;21.40;99.90
19781;DHT22;10050;55.492;13.506;2022-07-18T08:31:13;21.50;99.90
19781;DHT22;10050;55.492;13.506;2022-07-18T08:33:39;21.40;99.90
19781;DHT22;10050;55.492;13.506;2022-07-18T08:36:05;21.20;99.90
19781;DHT22;10050;55.492;13.506;2022-07-18T08:38:31;21.10;99.90
19781;DHT22;10050;55.492;13.506;2022-07-18T08:40:58;21.10;99.90
19781;DHT22;10050;55.492;13.506;2022-07-18T08:43:25;21.30;99.90
19781;DHT22;10050;55.492;13.506;2022-07-18T08:45:54;21.20;99.90
19781;DHT22;10050;55.492;13.506;2022-07-18T08:48:21;21.10;99.90
19781;DHT22;10050;55.492;13.506;2022-07-18T08:50:48;21.20;99.90
19781;DHT22;10050;55.492;13.506;2022-07-18T08:53:15;21.20;99.90
19781;DHT22;10050;55.492;13.506;2022-07-18T08:55:42;21.30;99.90
19781;DHT22;10050;55.492;13.506;2022-07-18T08:58:07;21.30;99.90
19781;DHT22;10050;55.492;13.506;2022-07-18T09:00:34;21.20;99.90
19781;DHT22;10050;55.492;13.506;2022-07-18T09:03:00;21.20;99.90
19781;DHT22;10050;55.492;13.506;2022-07-18T09:05:27;21.20;99.90
19781;DHT22;10050;55.492;13.506;2022-07-18T09:08:17;21.30;99.90
19781;DHT22;10050;55.492;13.506;2022-07-18T09:10:56;21.40;99.90
19781;DHT22;10050;55.492;13.506;2022-07-18T09:13:25;21.40;99.90
19781;DHT22;10050;55.492;13.506;2022-07-18T09:16:03;21.50;99.90
19781;DHT22;10050;55.492;13.506;2022-07-18T09:18:31;21.40;99.90
19781;DHT22;10050;55.492;13.506;2022-07-18T09:21:01;21.50;99.90
19781;DHT22;10050;55.492;13.506;2022-07-18T09:23:29;21.50;99.90
19781;DHT22;10050;55.492;13.506;2022-07-18T09:25:55;21.70;99.90
19781;DHT22;10050;55.492;13.506;2022-07-18T09:28:20;22.20;99.90
19781;DHT22;10050;55.492;13.506;2022-07-18T09:30:46;22.70;99.90
19781;DHT22;10050;55.492;13.506;2022-07-18T09:33:12;22.80;99.90
19781;DHT22;10050;55.492;13.506;2022-07-18T09:35:42;23.00;99.90
19781;DHT22;10050;55.492;13.506;2022-07-18T09:38:09;22.90;99.90
19781;DHT22;10050;55.492;13.506;2022-07-18T09:40:55;22.60;99.90
19781;DHT22;10050;55.492;13.506;2022-07-18T09:43:24;22.40;99.90
19781;DHT22;10050;55.492;13.506;2022-07-18T09:45:51;22.20;99.90
19781;DHT22;10050;55.492;13.506;2022-07-18T09:48:19;22.00;99.90
19781;DHT22;10050;55.492;13.506;2022-07-18T09:50:52;21.60;99.90
19781;DHT22;10050;55.492;13.506;2022-07-18T09:53:38;21.40;99.90
19781;DHT22;10050;55.492;13.506;2022-07-18T09:56:06;21.20;99.90
19781;DHT22;10050;55.492;13.506;2022-07-18T09:58:42;21.10;99.90
19781;DHT22;10050;55.492;13.506;2022-07-18T10:01:14;21.20;99.90
19781;DHT22;10050;55.492;13.506;2022-07-18T10:03:39;21.10;99.90
19781;DHT22;10050;55.492;13.506;2022-07-18T10:06:05;21.00;99.90
19781;DHT22;10050;55.492;13.506;2022-07-18T10:08:32;21.00;99.90
19781;DHT22;10050;55.492;13.506;2022-07-18T10:10:59;20.90;99.90
19781;DHT22;10050;55.492;13.506;2022-07-18T10:13:27;20.90;99.90
19781;DHT22;10050;55.492;13.506;2022-07-18T10:15:53;20.80;99.90
19781;DHT22;10050;55.492;13.506;2022-07-18T10:18:25;20.60;99.90
19781;DHT22;10050;55.492;13.506;2022-07-18T10:21:02;20.70;99.90
19781;DHT22;10050;55.492;13.506;2022-07-18T10:23:32;20.70;99.90
19781;DHT22;10050;55.492;13.506;2022-07-18T10:26:14;20.70;99.90
19781;DHT22;10050;55.492;13.506;2022-07-18T10:32:03;20.70;99.90
19781;DHT22;10050;55.492;13.506;2022-07-18T10:34:35;20.80;99.90
19781;DHT22;10050;55.492;13.506;2022-07-18T10:39:35;20.80;99.90
19781;DHT22;10050;55.492;13.506;2022-07-18T11:00:27;21.90;99.90
19781;DHT22;10050;55.492;13.506;2022-07-18T11:03:09;22.10;99.90
19781;DHT22;10050;55.492;13.506;2022-07-18T11:05:44;22.10;99.90
19781;DHT22;10050;55.492;13.506;2022-07-18T11:23:44;21.90;99.90
19781;DHT22;10050;55.492;13.506;2022-07-18T11:26:15;21.70;99.90
19781;DHT22;10050;55.492;13.506;2022-07-18T11:28:41;21.60;99.90
19781;DHT22;10050;55.492;13.506;2022-07-18T11:31:10;21.60;99.90
19781;DHT22;10050;55.492;13.506;2022-07-18T11:33:47;21.60;99.90
19781;DHT22;10050;55.492;13.506;2022-07-18T11:36:20;21.80;99.90
19781;DHT22;10050;55.492;13.506;2022-07-18T11:38:48;21.90;99.90
19781;DHT22;10050;55.492;13.506;2022-07-18T11:41:15;21.90;99.90
19781;DHT22;10050;55.492;13.506;2022-07-18T11:43:43;22.00;99.90
19781;DHT22;10050;55.492;13.506;2022-07-18T11:46:11;22.10;99.90
19781;DHT22;10050;55.492;13.506;2022-07-18T11:48:38;22.10;99.90
19781;DHT22;10050;55.492;13.506;2022-07-18T11:51:11;21.90;99.90
19781;DHT22;10050;55.492;13.506;2022-07-18T11:53:51;21.90;99.90
19781;DHT22;10050;55.492;13.506;2022-07-18T11:56:18;21.80;99.90
19781;DHT22;10050;55.492;13.506;2022-07-18T11:58:45;21.70;99.90
19781;DHT22;10050;55.492;13.506;2022-07-18T12:01:12;21.60;99.90
19781;DHT22;10050;55.492;13.506;2022-07-18T12:03:56;21.50;99.90
19781;DHT22;10050;55.492;13.506;2022-07-18T12:06:23;21.50;99.90
19781;DHT22;10050;55.492;13.506;2022-07-18T12:08:51;21.50;99.90
19781;DHT22;10050;55.492;13.506;2022-07-18T12:11:33;21.50;99.90
19781;DHT22;10050;55.492;13.506;2022-07-18T12:19:20;21.20;99.90
19781;DHT22;10050;55.492;13.506;2022-07-18T12:21:50;21.20;99.90
19781;DHT22;10050;55.492;13.506;2022-07-18T12:26:48;21.20;99.90
19781;DHT22;10050;55.492;13.506;2022-07-18T12:29:13;21.30;99.90
19781;DHT22;10050;55.492;13.506;2022-07-18T12:31:48;21.30;99.90
19781;DHT22;10050;55.492;13.506;2022-07-18T12:34:16;21.20;99.90
19781;DHT22;10050;55.492;13.506;2022-07-18T12:36:56;21.20;99.90
19781;DHT22;10050;55.492;13.506;2022-07-18T12:39:32;21.30;99.90
19781;DHT22;10050;55.492;13.506;2022-07-18T12:41:59;21.30;99.90
19781;DHT22;10050;55.492;13.506;2022-07-18T12:44:25;21.20;99.90
19781;DHT22;10050;55.492;13.506;2022-07-18T12:46:52;21.20;99.90
19781;DHT22;10050;55.492;13.506;2022-07-18T12:49:17;21.30;99.90
19781;DHT22;10050;55.492;13.506;2022-07-18T12:51:43;21.20;99.90
19781;DHT22;10050;55.492;13.506;2022-07-18T12:54:09;21.20;99.90
19781;DHT22;10050;55.492;13.506;2022-07-18T12:56:35;21.10;99.90
19781;DHT22;10050;55.492;13.506;2022-07-18T12:59:01;21.10;99.90
19781;DHT22;10050;55.492;13.506;2022-07-18T13:01:26;21.00;99.90
19781;DHT22;10050;55.492;13.506;2022-07-18T13:03:52;21.00;99.90
19781;DHT22;10050;55.492;13.506;2022-07-18T13:06:18;20.80;99.90
19781;DHT22;10050;55.492;13.506;2022-07-18T13:08:44;20.70;99.90
19781;DHT22;10050;55.492;13.506;2022-07-18T13:11:09;20.70;99.90
19781;DHT22;10050;55.492;13.506;2022-07-18T13:13:35;20.60;99.90
19781;DHT22;10050;55.492;13.506;2022-07-18T13:16:01;20.60;99.90
19781;DHT22;10050;55.492;13.506;2022-07-18T13:18:26;20.60;99.90
19781;DHT22;10050;55.492;13.506;2022-07-18T13:20:52;20.50;99.90
19781;DHT22;10050;55.492;13.506;2022-07-18T13:23:17;20.60;99.90
19781;DHT22;10050;55.492;13.506;2022-07-18T13:25:46;20.60;99.90
19781;DHT22;10050;55.492;13.506;2022-07-18T13:28:13;20.60;99.90
19781;DHT22;10050;55.492;13.506;2022-07-18T13:30:48;20.70;99.90
19781;DHT22;10050;55.492;13.506;2022-07-18T13:33:14;20.80;99.90
19781;DHT22;10050;55.492;13.506;2022-07-18T13:35:39;20.70;99.90
19781;DHT22;10050;55.492;13.506;2022-07-18T13:38:05;20.70;99.90
19781;DHT22;10050;55.492;13.506;2022-07-18T13:40:32;20.80;99.90
19781;DHT22;10050;55.492;13.506;2022-07-18T13:42:58;20.90;99.90
19781;DHT22;10050;55.492;13.506;2022-07-18T13:45:24;21.00;99.90
19781;DHT22;10050;55.492;13.506;2022-07-18T13:47:50;21.10;99.90
19781;DHT22;10050;55.492;13.506;2022-07-18T13:50:15;21.10;99.90
19781;DHT22;10050;55.492;13.506;2022-07-18T13:52:42;21.10;99.90
19781;DHT22;10050;55.492;13.506;2022-07-18T13:55:08;21.10;99.90
19781;DHT22;10050;55.492;13.506;2022-07-18T13:57:34;21.20;99.90
19781;DHT22;10050;55.492;13.506;2022-07-18T14:00:00;21.30;99.90
19781;DHT22;10050;55.492;13.506;2022-07-18T14:02:25;21.40;99.90
19781;DHT22;10050;55.492;13.506;2022-07-18T14:04:53;21.40;99.90
19781;DHT22;10050;55.492;13.506;2022-07-18T14:07:18;21.40;99.90
19781;DHT22;10050;55.492;13.506;2022-07-18T14:09:44;21.50;99.90
19781;DHT22;10050;55.492;13.506;2022-07-18T14:12:10;21.50;99.90
19781;DHT22;10050;55.492;13.506;2022-07-18T14:14:35;21.60;99.90
19781;DHT22;10050;55.492;13.506;2022-07-18T14:17:01;21.60;99.90
19781;DHT22;10050;55.492;13.506;2022-07-18T14:19:27;21.60;99.90
19781;DHT22;10050;55.492;13.506;2022-07-18T14:21:52;21.70;99.90
19781;DHT22;10050;55.492;13.506;2022-07-18T14:24:18;21.70;99.90
19781;DHT22;10050;55.492;13.506;2022-07-18T14:26:43;21.80;99.90
19781;DHT22;10050;55.492;13.506;2022-07-18T14:29:09;21.70;99.90
19781;DHT22;10050;55.492;13.506;2022-07-18T14:31:35;21.80;99.90
19781;DHT22;10050;55.492;13.506;2022-07-18T14:34:00;21.80;99.90
19781;DHT22;10050;55.492;13.506;2022-07-18T14:36:26;21.90;99.90
19781;DHT22;10050;55.492;13.506;2022-07-18T14:38:52;21.80;99.90
19781;DHT22;10050;55.492;13.506;2022-07-18T14:41:18;21.80;99.90
19781;DHT22;10050;55.492;13.506;2022-07-18T14:43:43;21.90;99.90
19781;DHT22;10050;55.492;13.506;2022-07-18T14:46:09;21.80;99.90
19781;DHT22;10050;55.492;13.506;2022-07-18T14:48:34;21.80;99.90
19781;DHT22;10050;55.492;13.506;2022-07-18T14:51:00;21.90;99.90
19781;DHT22;10050;55.492;13.506;2022-07-18T14:53:26;21.90;99.90
19781;DHT22;10050;55.492;13.506;2022-07-18T14:55:52;21.90;99.90
19781;DHT22;10050;55.492;13.506;2022-07-18T14:58:18;21.80;99.90
19781;DHT22;10050;55.492;13.506;2022-07-18T15:00:44;21.80;99.90
19781;DHT22;10050;55.492;13.506;2022-07-18T15:03:09;21.70;99.90
19781;DHT22;10050;55.492;13.506;2022-07-18T15:05:35;21.70;99.90
19781;DHT22;10050;55.492;13.506;2022-07-18T15:08:01;21.70;99.90
19781;DHT22;10050;55.492;13.506;2022-07-18T15:10:26;21.70;99.90
19781;DHT22;10050;55.492;13.506;2022-07-18T15:12:52;21.60;99.90
19781;DHT22;10050;55.492;13.506;2022-07-18T15:15:18;21.50;99.90
19781;DHT22;10050;55.492;13.506;2022-07-18T15:17:43;21.60;99.90
19781;DHT22;10050;55.492;13.506;2022-07-18T15:20:10;21.50;99.90
19781;DHT22;10050;55.492;13.506;2022-07-18T15:22:36;21.50;99.90
19781;DHT22;10050;55.492;13.506;2022-07-18T15:25:02;21.40;99.90
19781;DHT22;10050;55.492;13.506;2022-07-18T15:27:27;21.40;99.90
19781;DHT22;10050;55.492;13.506;2022-07-18T15:29:53;21.40;99.90
19781;DHT22;10050;55.492;13.506;2022-07-18T15:32:19;21.40;99.90
19781;DHT22;10050;55.492;13.506;2022-07-18T15:34:45;21.40;99.90
19781;DHT22;10050;55.492;13.506;2022-07-18T15:37:10;21.40;99.90
19781;DHT22;10050;55.492;13.506;2022-07-18T15:39:36;21.40;99.90
19781;DHT22;10050;55.492;13.506;2022-07-18T15:42:02;21.40;99.90
19781;DHT22;10050;55.492;13.506;2022-07-18T15:44:28;21.30;99.90
19781;DHT22;10050;55.492;13.506;2022-07-18T15:46:54;21.20;99.90
19781;DHT22;10050;55.492;13.506;2022-07-18T15:49:19;21.20;99.90
19781;DHT22;10050;55.492;13.506;2022-07-18T15:51:45;21.20;99.90
19781;DHT22;10050;55.492;13.506;2022-07-18T15:54:14;21.20;99.90
19781;DHT22;10050;55.492;13.506;2022-07-18T15:56:41;21.20;99.90
19781;DHT22;10050;55.492;13.506;2022-07-18T15:59:07;21.30;99.90
19781;DHT22;10050;55.492;13.506;2022-07-18T16:01:32;21.30;99.90